createdAt,value
2022-08-04T00:00:30.822Z,18.84
2022-08-04T00:03:08.532Z,18.83
2022-08-04T00:05:39.613Z,18.82
2022-08-04T00:08:08.776Z,18.78
2022-08-04T00:10:38.010Z,18.71
2022-08-04T00:13:07.161Z,18.64
2022-08-04T00:15:36.343Z,18.56
2022-08-04T00:18:05.811Z,18.50
2022-08-04T00:20:35.063Z,18.43
2022-08-04T00:23:04.389Z,18.37
2022-08-04T00:25:33.654Z,18.32
2022-08-04T00:28:04.686Z,18.30
2022-08-04T00:30:34.014Z,18.30
2022-08-04T00:33:03.294Z,18.29
2022-08-04T00:35:34.961Z,18.26
2022-08-04T00:38:04.158Z,18.23
2022-08-04T00:40:33.762Z,18.22
2022-08-04T00:43:03.034Z,18.19
2022-08-04T00:46:00.476Z,18.16
2022-08-04T00:48:21.593Z,18.16
2022-08-04T00:50:50.772Z,18.16
2022-08-04T00:53:20.003Z,18.12
2022-08-04T00:55:49.255Z,18.07
2022-08-04T00:58:20.461Z,18.03
2022-08-04T01:00:49.716Z,18.01
2022-08-04T01:03:19.018Z,17.99
2022-08-04T01:05:49.006Z,17.95
2022-08-04T01:08:18.252Z,17.90
2022-08-04T01:10:47.502Z,17.87
2022-08-04T01:13:16.817Z,17.83
2022-08-04T01:15:59.283Z,17.80
2022-08-04T01:18:30.151Z,17.77
2022-08-04T01:20:59.412Z,17.73
2022-08-04T01:23:28.730Z,17.74
2022-08-04T01:25:58.023Z,17.74
2022-08-04T01:28:31.891Z,17.74
2022-08-04T01:31:01.188Z,17.71
2022-08-04T01:33:30.394Z,17.69
2022-08-04T01:35:59.622Z,17.66
2022-08-04T01:38:28.917Z,17.63
2022-08-04T01:40:59.958Z,17.57
2022-08-04T01:43:30.989Z,17.54
2022-08-04T01:46:02.318Z,17.50
2022-08-04T01:48:31.614Z,17.48
2022-08-04T01:51:02.775Z,17.44
2022-08-04T01:53:33.968Z,17.41
2022-08-04T01:56:03.398Z,17.41
2022-08-04T01:58:33.131Z,17.40
2022-08-04T02:01:05.205Z,17.36
2022-08-04T02:04:18.454Z,17.31
2022-08-04T02:06:32.946Z,17.27
2022-08-04T02:09:02.279Z,17.24
2022-08-04T02:11:31.459Z,17.20
2022-08-04T02:14:00.611Z,17.17
2022-08-04T02:16:29.979Z,17.12
2022-08-04T02:18:59.284Z,17.07
2022-08-04T02:21:28.447Z,17.04
2022-08-04T02:24:12.426Z,17.00
2022-08-04T02:26:41.725Z,16.99
2022-08-04T02:29:12.838Z,16.96
2022-08-04T02:31:42.057Z,16.92
2022-08-04T02:34:11.309Z,16.89
2022-08-04T02:36:40.673Z,16.87
2022-08-04T02:39:09.994Z,16.85
2022-08-04T02:41:41.876Z,16.82
2022-08-04T02:44:13.047Z,16.79
2022-08-04T02:46:42.290Z,16.79
2022-08-04T02:49:11.654Z,16.77
2022-08-04T02:51:40.795Z,16.77
2022-08-04T02:54:10.041Z,16.76
2022-08-04T02:56:39.353Z,16.75
2022-08-04T02:59:08.677Z,16.74
2022-08-04T03:01:38.007Z,16.72
2022-08-04T03:04:28.035Z,16.69
2022-08-04T03:06:57.704Z,16.68
2022-08-04T03:09:27.004Z,16.68
2022-08-04T03:11:56.298Z,16.68
2022-08-04T03:14:27.259Z,16.68
2022-08-04T03:16:56.613Z,16.71
2022-08-04T03:19:25.861Z,16.71
2022-08-04T03:21:56.974Z,16.68
2022-08-04T03:24:26.247Z,16.67
2022-08-04T03:26:57.481Z,16.62
2022-08-04T03:29:36.682Z,16.59
2022-08-04T03:32:08.254Z,16.55
2022-08-04T03:34:37.525Z,16.51
2022-08-04T03:37:06.878Z,16.51
2022-08-04T03:39:36.267Z,16.51
2022-08-04T03:42:06.526Z,16.51
2022-08-04T03:44:38.964Z,16.51
2022-08-04T03:47:08.202Z,16.51
2022-08-04T03:49:37.421Z,16.51
2022-08-04T03:52:24.064Z,16.53
2022-08-04T03:54:53.389Z,16.55
2022-08-04T03:57:22.862Z,16.56
2022-08-04T03:59:53.941Z,16.60
2022-08-04T04:02:23.346Z,16.63
2022-08-04T04:04:52.563Z,16.67
2022-08-04T04:07:35.601Z,16.73
2022-08-04T04:10:07.617Z,16.82
2022-08-04T04:12:38.691Z,16.89
2022-08-04T04:15:08.033Z,16.99
2022-08-04T04:17:37.281Z,17.10
2022-08-04T04:20:06.515Z,17.15
2022-08-04T04:22:38.553Z,17.20
2022-08-04T04:25:09.327Z,17.27
2022-08-04T04:27:38.515Z,17.33
2022-08-04T04:30:07.910Z,17.40
2022-08-04T04:32:37.271Z,17.49
2022-08-04T04:35:06.483Z,17.57
2022-08-04T04:37:35.836Z,17.67
2022-08-04T04:40:06.874Z,17.77
2022-08-04T04:42:36.056Z,17.86
2022-08-04T04:45:05.292Z,17.94
2022-08-04T04:48:07.144Z,18.04
2022-08-04T04:50:23.895Z,18.17
2022-08-04T04:53:04.564Z,18.27
2022-08-04T04:55:35.503Z,18.36
2022-08-04T04:58:04.772Z,18.46
2022-08-04T05:00:34.267Z,18.56
2022-08-04T05:03:08.680Z,18.69
2022-08-04T05:05:40.027Z,18.82
2022-08-04T05:08:43.471Z,18.94
2022-08-04T05:10:58.631Z,19.07
2022-08-04T05:14:38.228Z,19.20
2022-08-04T05:16:17.144Z,19.34
2022-08-04T05:18:48.448Z,19.48
2022-08-04T05:21:17.805Z,19.62
2022-08-04T05:23:47.040Z,19.74
2022-08-04T05:26:16.340Z,19.86
2022-08-04T05:28:45.584Z,20.00
2022-08-04T05:31:14.806Z,20.15
2022-08-04T05:33:44.127Z,20.29
2022-08-04T05:36:20.446Z,20.44
2022-08-04T05:38:54.628Z,20.60
2022-08-04T05:41:23.896Z,20.75
2022-08-04T05:44:03.277Z,20.92
2022-08-04T05:46:32.537Z,21.08
2022-08-04T05:49:01.717Z,21.25
2022-08-04T05:51:33.233Z,21.42
2022-08-04T05:54:02.547Z,21.59
2022-08-04T05:56:34.298Z,21.75
2022-08-04T05:59:03.504Z,21.92
2022-08-04T06:01:32.975Z,22.06
2022-08-04T06:04:22.207Z,22.25
2022-08-04T06:06:51.502Z,22.40
2022-08-04T06:09:20.772Z,22.54
2022-08-04T06:12:00.177Z,22.69
2022-08-04T06:14:35.057Z,22.82
2022-08-04T06:17:06.206Z,22.99
2022-08-04T06:19:59.392Z,23.13
2022-08-04T06:22:35.793Z,23.27
2022-08-04T06:25:05.104Z,23.42
2022-08-04T06:27:36.838Z,23.57
2022-08-04T06:30:11.558Z,23.70
2022-08-04T06:32:49.998Z,23.85
2022-08-04T06:35:19.257Z,24.01
2022-08-04T06:37:48.792Z,24.14
2022-08-04T06:40:31.318Z,24.29
2022-08-04T06:43:03.822Z,24.43
2022-08-04T06:45:37.322Z,24.58
2022-08-04T06:48:06.612Z,24.74
2022-08-04T06:51:25.420Z,24.88
2022-08-04T06:53:28.677Z,25.04
2022-08-04T06:55:57.929Z,25.19
2022-08-04T06:58:29.009Z,25.33
2022-08-04T07:01:02.168Z,25.46
2022-08-04T07:03:31.516Z,25.60
2022-08-04T07:06:05.717Z,25.72
2022-08-04T07:08:35.754Z,25.84
2022-08-04T07:11:07.443Z,26.00
2022-08-04T07:13:36.768Z,26.14
2022-08-04T07:16:06.171Z,26.28
2022-08-04T07:18:35.501Z,26.41
2022-08-04T07:21:04.771Z,26.54
2022-08-04T07:23:38.119Z,26.67
2022-08-04T07:26:12.012Z,26.81
2022-08-04T07:28:42.179Z,26.97
2022-08-04T07:31:32.029Z,27.12
2022-08-04T07:34:11.539Z,27.27
2022-08-04T07:36:52.737Z,27.40
2022-08-04T07:39:27.348Z,27.50
2022-08-04T07:41:57.307Z,27.63
2022-08-04T07:44:26.733Z,27.76
2022-08-04T07:46:56.093Z,27.90
2022-08-04T07:49:56.787Z,28.04
2022-08-04T07:52:16.472Z,28.15
2022-08-04T07:54:45.712Z,28.25
2022-08-04T07:57:19.425Z,28.34
2022-08-04T08:00:04.501Z,28.45
2022-08-04T08:02:42.504Z,28.56
2022-08-04T08:05:11.886Z,28.69
2022-08-04T08:07:50.044Z,28.81
2022-08-04T08:10:26.638Z,28.96
2022-08-04T08:12:55.864Z,29.08
2022-08-04T08:15:25.182Z,29.21
2022-08-04T08:17:58.192Z,29.30
2022-08-04T08:20:30.521Z,29.39
2022-08-04T08:23:01.658Z,29.46
2022-08-04T08:25:30.953Z,29.54
2022-08-04T08:28:00.242Z,29.62
2022-08-04T08:30:32.053Z,29.70
2022-08-04T08:33:05.453Z,29.81
2022-08-04T08:35:36.063Z,29.92
2022-08-04T08:38:17.816Z,29.99
2022-08-04T08:40:49.295Z,30.08
2022-08-04T08:44:04.639Z,30.17
2022-08-04T08:46:07.771Z,30.25
2022-08-04T08:48:37.129Z,30.33
2022-08-04T08:51:06.354Z,30.43
2022-08-04T08:53:37.631Z,30.48
2022-08-04T08:56:06.846Z,30.54
2022-08-04T08:58:36.091Z,30.59
2022-08-04T09:01:05.553Z,30.64
2022-08-04T09:03:34.851Z,30.68
2022-08-04T09:06:04.198Z,30.74
2022-08-04T09:08:33.469Z,30.77
2022-08-04T09:11:02.788Z,30.80
2022-08-04T09:13:32.019Z,30.82
2022-08-04T09:16:04.553Z,30.90
2022-08-04T09:18:36.069Z,30.94
2022-08-04T09:21:05.423Z,30.99
2022-08-04T09:23:34.746Z,31.04
2022-08-04T09:26:05.728Z,31.08
2022-08-04T09:28:52.825Z,31.14
2022-08-04T09:31:24.232Z,31.25
2022-08-04T09:33:53.494Z,31.31
2022-08-04T09:36:26.815Z,31.36
2022-08-04T09:38:57.927Z,31.41
2022-08-04T09:41:48.154Z,31.47
2022-08-04T09:44:52.214Z,31.45
2022-08-04T09:47:11.843Z,31.52
2022-08-04T09:49:41.164Z,31.61
2022-08-04T09:52:10.442Z,31.65
2022-08-04T09:54:39.608Z,31.65
2022-08-04T09:57:08.984Z,31.71
2022-08-04T09:59:38.252Z,31.77
2022-08-04T10:02:09.375Z,31.80
2022-08-04T10:04:38.686Z,31.81
2022-08-04T10:07:09.891Z,31.83
2022-08-04T10:09:39.087Z,31.88
2022-08-04T10:12:08.322Z,31.89
2022-08-04T10:14:39.499Z,31.92
2022-08-04T10:17:08.922Z,31.94
2022-08-04T10:19:38.183Z,31.99
2022-08-04T10:22:28.820Z,32.05
2022-08-04T10:24:56.729Z,32.15
2022-08-04T10:27:28.685Z,32.18
2022-08-04T10:29:58.029Z,32.19
2022-08-04T10:32:27.438Z,32.24
2022-08-04T10:34:56.724Z,32.23
2022-08-04T10:38:00.194Z,32.23
2022-08-04T10:40:32.847Z,32.29
2022-08-04T10:43:02.246Z,32.33
2022-08-04T10:45:31.393Z,32.35
2022-08-04T10:48:01.458Z,32.39
2022-08-04T10:50:32.601Z,32.43
2022-08-04T10:53:03.681Z,32.45
2022-08-04T10:56:07.045Z,32.51
2022-08-04T10:58:22.265Z,32.53
2022-08-04T11:01:11.678Z,32.55
2022-08-04T11:04:01.062Z,32.55
2022-08-04T11:06:30.457Z,32.59
2022-08-04T11:09:01.501Z,32.63
2022-08-04T11:11:30.882Z,32.63
2022-08-04T11:14:00.227Z,32.63
2022-08-04T11:16:33.182Z,32.69
2022-08-04T11:19:06.228Z,32.74
2022-08-04T11:21:35.619Z,32.77
2022-08-04T11:24:04.932Z,32.82
2022-08-04T11:26:34.221Z,32.88
2022-08-04T11:29:04.511Z,32.95
2022-08-04T11:31:34.030Z,33.04
2022-08-04T11:34:03.312Z,33.09
2022-08-04T11:36:32.657Z,33.05
2022-08-04T11:39:02.062Z,33.09
2022-08-04T11:41:31.355Z,33.06
2022-08-04T11:44:04.891Z,33.04
2022-08-04T11:46:38.537Z,33.02
2022-08-04T11:49:08.019Z,33.03
2022-08-04T11:51:37.323Z,33.01
2022-08-04T11:54:06.604Z,33.03
2022-08-04T11:56:38.011Z,33.07
2022-08-04T11:59:11.021Z,33.13
2022-08-04T12:01:42.343Z,33.16
2022-08-04T12:04:11.547Z,33.19
2022-08-04T12:06:40.827Z,33.23
2022-08-04T12:09:13.222Z,33.25
2022-08-04T12:11:44.317Z,33.25
2022-08-04T12:14:15.424Z,33.30
2022-08-04T12:16:44.785Z,33.32
2022-08-04T12:19:15.480Z,33.35
2022-08-04T12:21:50.400Z,33.37
2022-08-04T12:24:24.338Z,33.35
2022-08-04T12:26:53.757Z,33.36
2022-08-04T12:29:23.161Z,33.36
2022-08-04T12:31:52.403Z,33.28
2022-08-04T12:34:21.592Z,33.33
2022-08-04T12:36:55.670Z,33.37
2022-08-04T12:39:25.046Z,33.41
2022-08-04T12:41:58.509Z,33.42
2022-08-04T12:44:36.621Z,33.40
2022-08-04T12:47:26.495Z,33.41
2022-08-04T12:50:00.608Z,33.38
2022-08-04T12:55:24.068Z,33.51
2022-08-04T12:57:53.345Z,33.54
2022-08-04T13:00:25.046Z,33.60
2022-08-04T13:02:56.963Z,33.64
2022-08-04T13:05:26.230Z,33.69
2022-08-04T13:07:55.604Z,33.75
2022-08-04T13:10:30.304Z,33.77
2022-08-04T13:13:00.825Z,33.77
2022-08-04T13:15:32.676Z,33.81
2022-08-04T13:18:02.021Z,33.80
2022-08-04T13:20:31.407Z,33.82
2022-08-04T13:23:00.843Z,33.83
2022-08-04T13:26:44.795Z,33.85
2022-08-04T13:28:21.344Z,33.90
2022-08-04T13:30:52.378Z,33.95
2022-08-04T13:33:21.664Z,34.01
2022-08-04T13:35:55.416Z,33.99
2022-08-04T13:38:25.802Z,33.98
2022-08-04T13:40:54.979Z,33.95
2022-08-04T13:44:15.695Z,33.92
2022-08-04T13:46:13.470Z,33.87
2022-08-04T13:49:23.589Z,33.90
2022-08-04T13:51:58.034Z,33.84
2022-08-04T13:54:30.138Z,33.86
2022-08-04T13:57:01.452Z,33.91
2022-08-04T13:59:30.630Z,33.93
2022-08-04T14:01:59.779Z,33.92
2022-08-04T14:04:33.351Z,33.94
2022-08-04T14:07:02.664Z,33.88
2022-08-04T14:09:35.097Z,33.84
2022-08-04T14:12:37.393Z,33.89
2022-08-04T14:14:55.186Z,33.88
2022-08-04T14:17:24.594Z,33.87
2022-08-04T14:20:01.972Z,33.92
2022-08-04T14:22:36.028Z,33.93
2022-08-04T14:25:07.589Z,33.89
2022-08-04T14:27:36.831Z,33.84
2022-08-04T14:30:07.659Z,33.83
2022-08-04T14:32:36.806Z,33.86
2022-08-04T14:35:08.880Z,33.89
2022-08-04T14:37:48.739Z,33.88
2022-08-04T14:40:31.221Z,33.91
2022-08-04T14:43:05.227Z,33.91
2022-08-04T14:45:39.870Z,33.97
2022-08-04T14:48:27.974Z,34.03
2022-08-04T14:50:57.294Z,34.10
2022-08-04T14:53:31.154Z,34.18
2022-08-04T14:56:00.370Z,34.28
2022-08-04T14:58:35.108Z,34.43
2022-08-04T15:01:10.336Z,34.95
2022-08-04T15:03:52.703Z,35.35
2022-08-04T15:06:24.175Z,35.28
2022-08-04T15:08:54.404Z,35.48
2022-08-04T15:11:24.406Z,35.52
2022-08-04T15:13:55.572Z,35.54
2022-08-04T15:16:24.807Z,35.87
2022-08-04T15:18:54.594Z,36.67
2022-08-04T15:21:27.609Z,37.38
2022-08-04T15:23:56.726Z,37.93
2022-08-04T15:26:29.359Z,39.37
2022-08-04T15:28:59.011Z,40.32
2022-08-04T15:32:07.195Z,40.39
2022-08-04T15:34:17.466Z,40.18
2022-08-04T15:36:56.290Z,41.13
2022-08-04T15:39:28.299Z,42.62
2022-08-04T15:41:57.627Z,43.96
2022-08-04T15:44:27.585Z,44.59
2022-08-04T15:46:57.030Z,45.81
2022-08-04T15:49:26.484Z,46.94
2022-08-04T15:51:55.773Z,47.43
2022-08-04T15:54:32.806Z,47.79
2022-08-04T15:57:03.759Z,48.46
2022-08-04T15:59:34.901Z,48.97
2022-08-04T16:02:11.481Z,49.28
2022-08-04T16:04:41.219Z,49.80
2022-08-04T16:07:10.323Z,49.43
2022-08-04T16:09:45.457Z,49.30
2022-08-04T16:12:32.046Z,50.07
2022-08-04T16:15:06.647Z,50.88
2022-08-04T16:17:35.903Z,51.22
2022-08-04T16:20:06.846Z,50.90
2022-08-04T16:22:36.183Z,51.02
2022-08-04T16:25:05.592Z,51.53
2022-08-04T16:27:34.981Z,51.92
2022-08-04T16:30:04.216Z,51.78
2022-08-04T16:32:33.456Z,51.79
2022-08-04T16:35:05.158Z,52.00
2022-08-04T16:37:34.579Z,51.20
2022-08-04T16:40:05.648Z,51.06
2022-08-04T16:42:34.921Z,50.64
2022-08-04T16:45:04.148Z,50.53
2022-08-04T16:47:33.370Z,50.74
2022-08-04T16:50:07.677Z,51.18
2022-08-04T16:52:36.889Z,51.32
2022-08-04T16:55:06.473Z,51.29
2022-08-04T16:57:38.675Z,51.32
2022-08-04T17:00:09.033Z,51.38
2022-08-04T17:02:38.244Z,51.27
2022-08-04T17:05:08.252Z,51.07
2022-08-04T17:07:37.815Z,51.03
2022-08-04T17:10:07.111Z,50.80
2022-08-04T17:12:36.276Z,50.73
2022-08-04T17:15:07.453Z,50.75
2022-08-04T17:18:06.094Z,50.65
2022-08-04T17:21:01.428Z,50.57
2022-08-04T17:23:19.360Z,50.37
2022-08-04T17:26:08.630Z,49.99
2022-08-04T17:28:47.763Z,49.73
2022-08-04T17:31:17.203Z,49.38
2022-08-04T17:33:54.808Z,48.58
2022-08-04T17:36:26.334Z,47.06
2022-08-04T17:39:01.696Z,46.11
2022-08-04T17:41:39.083Z,45.56
2022-08-04T17:44:11.774Z,45.22
2022-08-04T17:46:42.109Z,44.48
2022-08-04T17:49:16.628Z,43.59
2022-08-04T17:52:05.328Z,43.33
2022-08-04T17:54:40.517Z,42.89
2022-08-04T17:57:11.289Z,41.81
2022-08-04T17:59:57.192Z,40.48
2022-08-04T18:02:33.265Z,39.13
2022-08-04T18:05:06.846Z,38.05
2022-08-04T18:08:37.981Z,37.05
2022-08-04T18:10:38.423Z,36.07
2022-08-04T18:13:15.861Z,35.22
2022-08-04T18:15:47.749Z,34.54
2022-08-04T18:18:20.853Z,34.02
2022-08-04T18:20:52.277Z,33.44
2022-08-04T18:23:31.542Z,32.84
2022-08-04T18:26:03.882Z,32.26
2022-08-04T18:28:36.637Z,31.70
2022-08-04T18:31:07.707Z,31.11
2022-08-04T18:33:39.992Z,30.51
2022-08-04T18:36:33.181Z,30.08
2022-08-04T18:39:12.751Z,29.69
2022-08-04T18:42:02.311Z,29.34
2022-08-04T18:44:52.646Z,28.95
2022-08-04T18:47:29.859Z,28.59
2022-08-04T18:50:40.009Z,28.31
2022-08-04T18:52:53.062Z,28.04
2022-08-04T18:55:55.399Z,27.80
2022-08-04T19:01:04.502Z,27.37
2022-08-04T19:03:47.167Z,27.20
2022-08-04T19:06:18.738Z,27.06
2022-08-04T19:08:56.951Z,26.89
2022-08-04T19:11:38.280Z,26.73
2022-08-04T19:14:18.643Z,26.55
2022-08-04T19:16:50.143Z,26.35
2022-08-04T19:19:20.869Z,26.19
2022-08-04T19:21:59.524Z,26.03
2022-08-04T19:24:35.486Z,25.86
2022-08-04T19:27:10.321Z,25.74
2022-08-04T19:29:44.661Z,25.65
2022-08-04T19:32:16.270Z,25.55
2022-08-04T19:34:47.093Z,25.42
2022-08-04T19:37:58.230Z,25.32
2022-08-04T19:40:16.711Z,25.21
2022-08-04T19:43:14.981Z,25.05
2022-08-04T19:45:45.886Z,24.87
2022-08-04T19:48:20.188Z,24.70
2022-08-04T19:50:50.441Z,24.55
2022-08-04T19:53:20.227Z,24.42
2022-08-04T19:56:09.019Z,24.29
2022-08-04T19:58:47.457Z,24.18
2022-08-04T20:01:31.394Z,24.07
2022-08-04T20:04:08.040Z,23.99
2022-08-04T20:06:39.863Z,23.92
2022-08-04T20:09:24.449Z,23.85
2022-08-04T20:11:57.466Z,23.77
2022-08-04T20:14:32.674Z,23.70
2022-08-04T20:17:02.929Z,23.61
2022-08-04T20:19:36.728Z,23.52
2022-08-04T20:22:06.219Z,23.43
2022-08-04T20:25:01.050Z,23.36
2022-08-04T20:27:59.393Z,23.28
2022-08-04T20:30:34.825Z,23.22
2022-08-04T20:33:06.760Z,23.17
2022-08-04T20:36:00.799Z,23.13
2022-08-04T20:38:33.196Z,23.09
2022-08-04T20:41:04.693Z,23.06
2022-08-04T20:43:39.177Z,23.04
2022-08-04T20:46:29.070Z,23.01
2022-08-04T20:49:03.534Z,22.98
2022-08-04T20:51:39.956Z,22.91
2022-08-04T20:54:16.780Z,22.86
2022-08-04T20:56:52.353Z,22.83
2022-08-04T20:59:30.344Z,22.80
2022-08-04T21:01:59.577Z,22.76
2022-08-04T21:04:46.346Z,22.74
2022-08-04T21:07:23.379Z,22.72
2022-08-04T21:09:52.860Z,22.67
2022-08-04T21:12:27.378Z,22.65
2022-08-04T21:15:00.584Z,22.63
2022-08-04T21:17:34.360Z,22.62
2022-08-04T21:20:27.669Z,22.58
2022-08-04T21:22:59.435Z,22.56
2022-08-04T21:25:55.225Z,22.53
2022-08-04T21:28:25.669Z,22.48
2022-08-04T21:31:11.297Z,22.44
2022-08-04T21:33:53.496Z,22.39
2022-08-04T21:36:22.818Z,22.35
2022-08-04T21:38:58.383Z,22.32
2022-08-04T21:41:27.705Z,22.29
2022-08-04T21:43:58.712Z,22.25
2022-08-04T21:46:32.790Z,22.21
2022-08-04T21:49:02.023Z,22.19
2022-08-04T21:51:58.695Z,22.18
2022-08-04T21:54:20.468Z,22.17
2022-08-04T21:56:51.692Z,22.14
2022-08-04T21:59:31.306Z,22.12
2022-08-04T22:02:01.461Z,22.06
2022-08-04T22:04:35.576Z,22.03
2022-08-04T22:07:11.389Z,21.99
2022-08-04T22:09:41.386Z,21.97
2022-08-04T22:12:15.518Z,21.95
2022-08-04T22:14:50.619Z,21.93
2022-08-04T22:17:35.317Z,21.90
2022-08-04T22:20:05.360Z,21.86
2022-08-04T22:22:34.574Z,21.83
2022-08-04T22:25:12.467Z,21.80
2022-08-04T22:28:02.626Z,21.76
2022-08-04T22:30:37.360Z,21.74
2022-08-04T22:33:11.329Z,21.72
2022-08-04T22:36:04.637Z,21.70
2022-08-04T22:41:48.525Z,21.69
2022-08-04T22:44:33.759Z,21.67
2022-08-04T22:47:20.661Z,21.65
2022-08-04T22:50:21.729Z,21.63
2022-08-04T22:52:55.882Z,21.62
2022-08-04T22:55:25.504Z,21.61
2022-08-04T22:58:14.687Z,21.60
2022-08-04T23:00:51.990Z,21.58
2022-08-04T23:03:37.191Z,21.55
2022-08-04T23:06:11.974Z,21.53
2022-08-04T23:08:46.533Z,21.49
2022-08-04T23:11:18.502Z,21.47
2022-08-04T23:13:49.011Z,21.44
2022-08-04T23:16:22.208Z,21.40
2022-08-04T23:18:54.330Z,21.34
2022-08-04T23:21:28.111Z,21.25
2022-08-04T23:24:14.942Z,21.16
2022-08-04T23:26:44.374Z,21.08
2022-08-04T23:29:18.390Z,21.01
2022-08-04T23:31:59.659Z,20.95
2022-08-04T23:34:34.238Z,20.85
2022-08-04T23:37:03.442Z,20.77
2022-08-04T23:39:42.351Z,20.69
2022-08-04T23:42:22.117Z,20.61
2022-08-04T23:44:58.285Z,20.53
2022-08-04T23:48:19.022Z,20.47
2022-08-04T23:50:16.839Z,20.42
2022-08-04T23:52:46.086Z,20.38
2022-08-04T23:55:21.473Z,20.33
2022-08-04T23:58:06.325Z,20.28
